sensor_id;sensor_type;location;lat;lon;timestamp;pressure;altitude;pressure_sealevel;temperature;humidity
51333;BME280;37417;48.118;11.734;2022-07-06T00:02:00;95879.09;;;15.90;100.00
51333;BME280;37417;48.118;11.734;2022-07-06T00:04:46;95886.06;;;16.03;100.00
51333;BME280;37417;48.118;11.734;2022-07-06T00:07:31;95870.50;;;16.01;100.00
51333;BME280;37417;48.118;11.734;2022-07-06T00:10:17;95890.66;;;16.07;100.00
51333;BME280;37417;48.118;11.734;2022-07-06T00:13:03;95878.81;;;16.16;100.00
51333;BME280;37417;48.118;11.734;2022-07-06T00:15:48;95883.66;;;16.19;100.00
51333;BME280;37417;48.118;11.734;2022-07-06T00:18:34;95885.03;;;16.22;100.00
51333;BME280;37417;48.118;11.734;2022-07-06T00:21:20;95880.72;;;16.28;100.00
51333;BME280;37417;48.118;11.734;2022-07-06T00:24:06;95884.97;;;16.29;100.00
51333;BME280;37417;48.118;11.734;2022-07-06T00:26:51;95876.06;;;16.30;100.00
51333;BME280;37417;48.118;11.734;2022-07-06T00:29:37;95877.53;;;16.25;100.00
51333;BME280;37417;48.118;11.734;2022-07-06T00:32:23;95877.28;;;16.27;100.00
51333;BME280;37417;48.118;11.734;2022-07-06T00:35:08;95867.56;;;16.28;100.00
51333;BME280;37417;48.118;11.734;2022-07-06T00:37:54;95868.59;;;16.27;100.00
51333;BME280;37417;48.118;11.734;2022-07-06T00:40:40;95871.53;;;16.18;100.00
51333;BME280;37417;48.118;11.734;2022-07-06T00:43:26;95867.56;;;16.09;100.00
51333;BME280;37417;48.118;11.734;2022-07-06T00:46:11;95872.78;;;15.97;100.00
51333;BME280;37417;48.118;11.734;2022-07-06T00:48:57;95865.06;;;15.96;100.00
51333;BME280;37417;48.118;11.734;2022-07-06T00:51:43;95867.34;;;15.92;100.00
51333;BME280;37417;48.118;11.734;2022-07-06T00:54:31;95865.38;;;15.88;100.00
51333;BME280;37417;48.118;11.734;2022-07-06T00:57:18;95858.13;;;15.83;100.00
51333;BME280;37417;48.118;11.734;2022-07-06T01:00:05;95859.38;;;15.81;100.00
51333;BME280;37417;48.118;11.734;2022-07-06T01:02:52;95853.66;;;15.65;100.00
51333;BME280;37417;48.118;11.734;2022-07-06T01:05:38;95855.38;;;15.53;100.00
51333;BME280;37417;48.118;11.734;2022-07-06T01:08:24;95863.09;;;15.48;100.00
51333;BME280;37417;48.118;11.734;2022-07-06T01:11:10;95865.78;;;15.41;100.00
51333;BME280;37417;48.118;11.734;2022-07-06T01:13:56;95862.91;;;15.43;100.00
51333;BME280;37417;48.118;11.734;2022-07-06T01:16:43;95854.81;;;15.44;100.00
51333;BME280;37417;48.118;11.734;2022-07-06T01:19:29;95852.00;;;15.46;100.00
51333;BME280;37417;48.118;11.734;2022-07-06T01:22:14;95851.09;;;15.34;100.00
51333;BME280;37417;48.118;11.734;2022-07-06T01:25:00;95842.06;;;15.23;100.00
51333;BME280;37417;48.118;11.734;2022-07-06T01:27:47;95839.03;;;15.20;100.00
51333;BME280;37417;48.118;11.734;2022-07-06T01:30:32;95844.16;;;15.14;100.00
51333;BME280;37417;48.118;11.734;2022-07-06T01:33:18;95845.41;;;15.05;100.00
51333;BME280;37417;48.118;11.734;2022-07-06T01:36:04;95845.91;;;14.96;100.00
51333;BME280;37417;48.118;11.734;2022-07-06T01:38:54;95842.53;;;14.88;100.00
51333;BME280;37417;48.118;11.734;2022-07-06T01:41:40;95844.66;;;14.67;100.00
51333;BME280;37417;48.118;11.734;2022-07-06T01:44:26;95849.19;;;14.53;100.00
51333;BME280;37417;48.118;11.734;2022-07-06T01:47:13;95856.44;;;14.57;100.00
51333;BME280;37417;48.118;11.734;2022-07-06T01:49:59;95850.75;;;14.60;100.00
51333;BME280;37417;48.118;11.734;2022-07-06T01:52:45;95850.16;;;14.58;100.00
51333;BME280;37417;48.118;11.734;2022-07-06T01:55:31;95859.84;;;14.58;100.00
51333;BME280;37417;48.118;11.734;2022-07-06T01:58:17;95862.72;;;14.50;100.00
51333;BME280;37417;48.118;11.734;2022-07-06T02:01:13;95854.25;;;14.48;100.00
51333;BME280;37417;48.118;11.734;2022-07-06T02:03:58;95861.50;;;14.52;100.00
51333;BME280;37417;48.118;11.734;2022-07-06T02:06:44;95861.50;;;14.52;100.00
51333;BME280;37417;48.118;11.734;2022-07-06T02:09:30;95857.84;;;14.53;100.00
51333;BME280;37417;48.118;11.734;2022-07-06T02:12:15;95861.09;;;14.49;100.00
51333;BME280;37417;48.118;11.734;2022-07-06T02:15:01;95859.31;;;14.49;100.00
51333;BME280;37417;48.118;11.734;2022-07-06T02:17:47;95859.72;;;14.40;100.00
51333;BME280;37417;48.118;11.734;2022-07-06T02:20:32;95863.41;;;14.25;100.00
51333;BME280;37417;48.118;11.734;2022-07-06T02:23:18;95859.19;;;14.24;100.00
51333;BME280;37417;48.118;11.734;2022-07-06T02:26:04;95864.03;;;14.14;100.00
51333;BME280;37417;48.118;11.734;2022-07-06T02:28:49;95867.66;;;14.20;100.00
51333;BME280;37417;48.118;11.734;2022-07-06T02:31:35;95868.22;;;14.28;100.00
51333;BME280;37417;48.118;11.734;2022-07-06T02:34:21;95871.22;;;14.39;100.00
51333;BME280;37417;48.118;11.734;2022-07-06T02:37:07;95873.22;;;14.43;100.00
51333;BME280;37417;48.118;11.734;2022-07-06T02:39:53;95884.13;;;14.40;100.00
51333;BME280;37417;48.118;11.734;2022-07-06T02:42:39;95875.25;;;14.41;100.00
51333;BME280;37417;48.118;11.734;2022-07-06T02:45:25;95880.97;;;14.25;100.00
51333;BME280;37417;48.118;11.734;2022-07-06T02:48:10;95878.94;;;14.27;100.00
51333;BME280;37417;48.118;11.734;2022-07-06T02:50:56;95871.03;;;14.33;100.00
51333;BME280;37417;48.118;11.734;2022-07-06T02:53:42;95878.13;;;14.26;100.00
51333;BME280;37417;48.118;11.734;2022-07-06T02:56:27;95880.00;;;14.13;100.00
51333;BME280;37417;48.118;11.734;2022-07-06T02:59:13;95873.34;;;14.03;100.00
51333;BME280;37417;48.118;11.734;2022-07-06T03:01:59;95875.19;;;13.96;100.00
51333;BME280;37417;48.118;11.734;2022-07-06T03:04:45;95876.22;;;13.95;100.00
51333;BME280;37417;48.118;11.734;2022-07-06T03:07:30;95888.53;;;13.81;100.00
51333;BME280;37417;48.118;11.734;2022-07-06T03:10:16;95886.50;;;13.90;100.00
51333;BME280;37417;48.118;11.734;2022-07-06T03:13:03;95884.13;;;13.69;100.00
51333;BME280;37417;48.118;11.734;2022-07-06T03:15:48;95889.56;;;13.67;100.00
51333;BME280;37417;48.118;11.734;2022-07-06T03:18:34;95886.53;;;13.70;100.00
51333;BME280;37417;48.118;11.734;2022-07-06T03:21:20;95890.16;;;13.76;100.00
51333;BME280;37417;48.118;11.734;2022-07-06T03:24:05;95882.09;;;13.71;100.00
51333;BME280;37417;48.118;11.734;2022-07-06T03:26:51;95883.31;;;13.68;100.00
51333;BME280;37417;48.118;11.734;2022-07-06T03:29:37;95888.75;;;13.80;100.00
51333;BME280;37417;48.118;11.734;2022-07-06T03:32:22;95892.16;;;13.94;100.00
51333;BME280;37417;48.118;11.734;2022-07-06T03:35:08;95887.75;;;13.81;100.00
51333;BME280;37417;48.118;11.734;2022-07-06T03:37:54;95885.50;;;13.85;100.00
51333;BME280;37417;48.118;11.734;2022-07-06T03:40:40;95891.59;;;13.78;100.00
51333;BME280;37417;48.118;11.734;2022-07-06T03:43:26;95889.16;;;13.77;100.00
51333;BME280;37417;48.118;11.734;2022-07-06T03:46:11;95879.28;;;13.79;100.00
51333;BME280;37417;48.118;11.734;2022-07-06T03:48:57;95879.84;;;13.94;100.00
51333;BME280;37417;48.118;11.734;2022-07-06T03:51:42;95882.22;;;14.09;100.00
51333;BME280;37417;48.118;11.734;2022-07-06T03:54:28;95882.59;;;14.19;100.00
51333;BME280;37417;48.118;11.734;2022-07-06T03:57:14;95882.16;;;14.29;100.00
51333;BME280;37417;48.118;11.734;2022-07-06T03:59:59;95880.91;;;14.38;100.00
51333;BME280;37417;48.118;11.734;2022-07-06T04:02:45;95887.34;;;14.42;100.00
51333;BME280;37417;48.118;11.734;2022-07-06T04:05:31;95883.09;;;14.54;100.00
51333;BME280;37417;48.118;11.734;2022-07-06T04:08:16;95888.09;;;14.69;100.00
51333;BME280;37417;48.118;11.734;2022-07-06T04:11:02;95887.03;;;14.77;100.00
51333;BME280;37417;48.118;11.734;2022-07-06T04:13:48;95887.38;;;14.87;100.00
51333;BME280;37417;48.118;11.734;2022-07-06T04:16:34;95889.53;;;14.97;100.00
51333;BME280;37417;48.118;11.734;2022-07-06T04:19:19;95896.53;;;15.09;100.00
51333;BME280;37417;48.118;11.734;2022-07-06T04:22:05;95890.56;;;15.27;100.00
51333;BME280;37417;48.118;11.734;2022-07-06T04:24:51;95892.63;;;15.43;100.00
51333;BME280;37417;48.118;11.734;2022-07-06T04:27:36;95895.16;;;15.57;100.00
51333;BME280;37417;48.118;11.734;2022-07-06T04:30:22;95885.56;;;15.69;100.00
51333;BME280;37417;48.118;11.734;2022-07-06T04:33:08;95883.53;;;15.71;100.00
51333;BME280;37417;48.118;11.734;2022-07-06T04:35:53;95889.63;;;15.72;100.00
51333;BME280;37417;48.118;11.734;2022-07-06T04:38:39;95899.72;;;15.93;100.00
51333;BME280;37417;48.118;11.734;2022-07-06T04:41:25;95900.72;;;16.17;100.00
51333;BME280;37417;48.118;11.734;2022-07-06T04:44:10;95897.47;;;16.33;100.00
51333;BME280;37417;48.118;11.734;2022-07-06T04:46:56;95897.97;;;16.42;100.00
51333;BME280;37417;48.118;11.734;2022-07-06T04:49:42;95896.69;;;16.33;100.00
51333;BME280;37417;48.118;11.734;2022-07-06T04:52:27;95895.94;;;16.25;100.00
51333;BME280;37417;48.118;11.734;2022-07-06T04:55:13;95902.66;;;16.40;100.00
51333;BME280;37417;48.118;11.734;2022-07-06T04:58:00;95902.25;;;16.24;100.00
51333;BME280;37417;48.118;11.734;2022-07-06T05:00:45;95905.81;;;16.30;100.00
51333;BME280;37417;48.118;11.734;2022-07-06T05:03:33;95902.09;;;16.38;100.00
51333;BME280;37417;48.118;11.734;2022-07-06T05:06:20;95891.25;;;16.28;100.00
51333;BME280;37417;48.118;11.734;2022-07-06T05:09:06;95896.09;;;16.31;100.00
51333;BME280;37417;48.118;11.734;2022-07-06T05:11:51;95898.06;;;16.35;100.00
51333;BME280;37417;48.118;11.734;2022-07-06T05:14:37;95893.47;;;16.31;100.00
51333;BME280;37417;48.118;11.734;2022-07-06T05:17:23;95905.22;;;16.28;100.00
51333;BME280;37417;48.118;11.734;2022-07-06T05:20:08;95899.47;;;16.38;100.00
51333;BME280;37417;48.118;11.734;2022-07-06T05:22:54;95903.25;;;16.42;100.00
51333;BME280;37417;48.118;11.734;2022-07-06T05:25:40;95901.94;;;16.51;100.00
51333;BME280;37417;48.118;11.734;2022-07-06T05:28:25;95898.50;;;16.32;100.00
51333;BME280;37417;48.118;11.734;2022-07-06T05:31:11;95905.53;;;16.38;100.00
51333;BME280;37417;48.118;11.734;2022-07-06T05:33:57;95903.25;;;16.42;100.00
51333;BME280;37417;48.118;11.734;2022-07-06T05:36:42;95909.38;;;16.72;100.00
51333;BME280;37417;48.118;11.734;2022-07-06T05:39:29;95913.53;;;16.80;100.00
51333;BME280;37417;48.118;11.734;2022-07-06T05:42:15;95908.94;;;16.94;100.00
51333;BME280;37417;48.118;11.734;2022-07-06T05:45:00;95913.22;;;17.18;100.00
51333;BME280;37417;48.118;11.734;2022-07-06T05:47:46;95919.06;;;17.62;100.00
51333;BME280;37417;48.118;11.734;2022-07-06T05:50:50;95921.03;;;17.90;100.00
51333;BME280;37417;48.118;11.734;2022-07-06T05:53:36;95912.56;;;18.00;100.00
51333;BME280;37417;48.118;11.734;2022-07-06T05:56:21;95918.75;;;17.94;100.00
51333;BME280;37417;48.118;11.734;2022-07-06T05:59:07;95923.25;;;18.05;100.00
51333;BME280;37417;48.118;11.734;2022-07-06T06:01:53;95930.59;;;18.78;100.00
51333;BME280;37417;48.118;11.734;2022-07-06T06:04:39;95917.88;;;19.04;100.00
51333;BME280;37417;48.118;11.734;2022-07-06T06:07:24;95930.13;;;19.10;100.00
51333;BME280;37417;48.118;11.734;2022-07-06T06:10:12;95930.09;;;19.21;100.00
51333;BME280;37417;48.118;11.734;2022-07-06T06:12:58;95924.13;;;19.93;97.67
51333;BME280;37417;48.118;11.734;2022-07-06T06:15:44;95922.13;;;20.39;93.50
51333;BME280;37417;48.118;11.734;2022-07-06T06:18:29;95925.44;;;20.90;92.72
51333;BME280;37417;48.118;11.734;2022-07-06T06:21:15;95926.63;;;20.00;94.24
51333;BME280;37417;48.118;11.734;2022-07-06T06:24:00;95929.53;;;19.98;94.46
51333;BME280;37417;48.118;11.734;2022-07-06T06:26:46;95932.47;;;20.41;91.13
51333;BME280;37417;48.118;11.734;2022-07-06T06:29:32;95938.09;;;19.89;94.43
51333;BME280;37417;48.118;11.734;2022-07-06T06:32:17;95926.69;;;20.05;91.01
51333;BME280;37417;48.118;11.734;2022-07-06T06:35:04;95927.41;;;20.17;92.33
51333;BME280;37417;48.118;11.734;2022-07-06T06:37:50;95923.84;;;20.45;88.39
51333;BME280;37417;48.118;11.734;2022-07-06T06:40:36;95930.75;;;20.29;90.82
51333;BME280;37417;48.118;11.734;2022-07-06T06:43:21;95918.72;;;20.61;89.19
51333;BME280;37417;48.118;11.734;2022-07-06T06:46:07;95929.41;;;21.15;87.68
51333;BME280;37417;48.118;11.734;2022-07-06T06:48:53;95932.09;;;21.74;83.17
51333;BME280;37417;48.118;11.734;2022-07-06T06:51:38;95933.00;;;22.27;81.84
51333;BME280;37417;48.118;11.734;2022-07-06T06:54:25;95934.13;;;21.34;81.25
51333;BME280;37417;48.118;11.734;2022-07-06T06:57:10;95933.19;;;21.78;79.50
51333;BME280;37417;48.118;11.734;2022-07-06T06:59:56;95935.25;;;22.03;77.26
51333;BME280;37417;48.118;11.734;2022-07-06T07:02:44;95932.41;;;21.50;82.74
51333;BME280;37417;48.118;11.734;2022-07-06T07:05:30;95931.97;;;21.96;77.42
51333;BME280;37417;48.118;11.734;2022-07-06T07:08:16;95936.00;;;22.40;74.88
51333;BME280;37417;48.118;11.734;2022-07-06T07:11:01;95934.25;;;22.56;71.90
51333;BME280;37417;48.118;11.734;2022-07-06T07:13:47;95935.78;;;22.42;69.89
51333;BME280;37417;48.118;11.734;2022-07-06T07:16:33;95935.59;;;21.79;73.95
51333;BME280;37417;48.118;11.734;2022-07-06T07:19:18;95935.47;;;21.64;69.69
51333;BME280;37417;48.118;11.734;2022-07-06T07:22:04;95935.16;;;22.30;70.61
51333;BME280;37417;48.118;11.734;2022-07-06T07:24:50;95933.38;;;21.66;68.84
51333;BME280;37417;48.118;11.734;2022-07-06T07:27:36;95934.00;;;21.78;68.78
51333;BME280;37417;48.118;11.734;2022-07-06T07:30:22;95934.22;;;22.51;68.38
51333;BME280;37417;48.118;11.734;2022-07-06T07:33:08;95938.00;;;23.38;64.15
51333;BME280;37417;48.118;11.734;2022-07-06T07:35:53;95933.50;;;23.80;58.20
51333;BME280;37417;48.118;11.734;2022-07-06T07:38:39;95942.47;;;23.12;65.89
51333;BME280;37417;48.118;11.734;2022-07-06T07:41:25;95948.94;;;23.62;62.45
51333;BME280;37417;48.118;11.734;2022-07-06T07:44:10;95944.00;;;22.93;62.88
51333;BME280;37417;48.118;11.734;2022-07-06T07:46:56;95930.53;;;23.50;61.80
51333;BME280;37417;48.118;11.734;2022-07-06T07:49:42;95936.13;;;23.49;59.82
51333;BME280;37417;48.118;11.734;2022-07-06T07:52:28;95934.28;;;23.55;57.34
51333;BME280;37417;48.118;11.734;2022-07-06T07:55:13;95934.56;;;23.63;60.59
51333;BME280;37417;48.118;11.734;2022-07-06T07:57:59;95935.50;;;22.96;59.17
51333;BME280;37417;48.118;11.734;2022-07-06T08:00:45;95935.38;;;22.76;59.14
51333;BME280;37417;48.118;11.734;2022-07-06T08:03:31;95927.56;;;24.49;56.80
51333;BME280;37417;48.118;11.734;2022-07-06T08:06:17;95941.81;;;21.63;61.31
51333;BME280;37417;48.118;11.734;2022-07-06T08:09:03;95947.06;;;22.17;59.76
51333;BME280;37417;48.118;11.734;2022-07-06T08:11:50;95937.91;;;22.45;55.37
51333;BME280;37417;48.118;11.734;2022-07-06T08:14:35;95948.78;;;22.96;54.33
51333;BME280;37417;48.118;11.734;2022-07-06T08:17:22;95939.91;;;22.23;55.35
51333;BME280;37417;48.118;11.734;2022-07-06T08:20:08;95943.09;;;24.11;52.12
51333;BME280;37417;48.118;11.734;2022-07-06T08:22:54;95940.97;;;23.93;49.13
51333;BME280;37417;48.118;11.734;2022-07-06T08:25:40;95947.56;;;22.61;55.14
51333;BME280;37417;48.118;11.734;2022-07-06T08:28:25;95942.41;;;22.97;53.16
51333;BME280;37417;48.118;11.734;2022-07-06T08:31:11;95947.09;;;25.09;49.55
51333;BME280;37417;48.118;11.734;2022-07-06T08:33:57;95955.38;;;23.71;50.08
51333;BME280;37417;48.118;11.734;2022-07-06T08:36:43;95939.06;;;25.14;48.68
51333;BME280;37417;48.118;11.734;2022-07-06T08:39:29;95943.84;;;24.47;53.17
51333;BME280;37417;48.118;11.734;2022-07-06T08:42:16;95945.53;;;25.47;44.88
51333;BME280;37417;48.118;11.734;2022-07-06T08:45:04;95956.66;;;24.20;50.88
51333;BME280;37417;48.118;11.734;2022-07-06T08:47:50;95948.56;;;25.70;46.97
51333;BME280;37417;48.118;11.734;2022-07-06T08:50:39;95949.66;;;24.59;51.25
51333;BME280;37417;48.118;11.734;2022-07-06T08:53:24;95944.88;;;24.56;48.04
51333;BME280;37417;48.118;11.734;2022-07-06T08:56:10;95956.19;;;26.20;47.76
51333;BME280;37417;48.118;11.734;2022-07-06T08:58:56;95957.94;;;26.35;44.11
51333;BME280;37417;48.118;11.734;2022-07-06T09:01:44;95959.22;;;25.35;48.18
51333;BME280;37417;48.118;11.734;2022-07-06T09:04:32;95958.69;;;25.83;46.92
51333;BME280;37417;48.118;11.734;2022-07-06T09:07:19;95973.34;;;23.23;51.24
51333;BME280;37417;48.118;11.734;2022-07-06T09:10:07;95967.31;;;24.30;49.87
51333;BME280;37417;48.118;11.734;2022-07-06T09:13:01;95956.03;;;25.38;46.79
51333;BME280;37417;48.118;11.734;2022-07-06T09:15:47;95962.09;;;25.49;47.47
51333;BME280;37417;48.118;11.734;2022-07-06T09:18:36;95966.00;;;24.12;48.05
51333;BME280;37417;48.118;11.734;2022-07-06T09:21:28;95967.53;;;23.42;49.43
51333;BME280;37417;48.118;11.734;2022-07-06T09:24:18;95969.19;;;24.29;49.25
51333;BME280;37417;48.118;11.734;2022-07-06T09:27:04;95958.56;;;25.59;51.46
51333;BME280;37417;48.118;11.734;2022-07-06T09:29:50;95963.03;;;26.85;48.03
51333;BME280;37417;48.118;11.734;2022-07-06T09:32:46;95967.34;;;23.99;50.99
51333;BME280;37417;48.118;11.734;2022-07-06T09:35:36;95968.44;;;25.04;52.66
51333;BME280;37417;48.118;11.734;2022-07-06T09:38:25;95969.03;;;24.85;46.66
51333;BME280;37417;48.118;11.734;2022-07-06T09:41:11;95969.47;;;23.72;51.57
51333;BME280;37417;48.118;11.734;2022-07-06T09:43:57;95973.41;;;23.49;51.25
51333;BME280;37417;48.118;11.734;2022-07-06T09:46:42;95969.75;;;23.81;53.37
51333;BME280;37417;48.118;11.734;2022-07-06T09:49:29;95974.03;;;26.01;47.98
51333;BME280;37417;48.118;11.734;2022-07-06T09:52:14;95973.34;;;26.49;46.10
51333;BME280;37417;48.118;11.734;2022-07-06T09:55:00;95968.66;;;24.12;50.03
51333;BME280;37417;48.118;11.734;2022-07-06T09:57:53;95968.06;;;25.75;46.63
51333;BME280;37417;48.118;11.734;2022-07-06T10:00:39;95972.66;;;24.40;51.56
51333;BME280;37417;48.118;11.734;2022-07-06T10:03:25;95964.78;;;24.84;49.25
51333;BME280;37417;48.118;11.734;2022-07-06T10:06:11;95962.00;;;23.94;49.76
51333;BME280;37417;48.118;11.734;2022-07-06T10:08:58;95965.41;;;23.39;49.81
51333;BME280;37417;48.118;11.734;2022-07-06T10:11:57;95968.13;;;24.25;50.00
51333;BME280;37417;48.118;11.734;2022-07-06T10:14:43;95962.00;;;24.15;50.97
51333;BME280;37417;48.118;11.734;2022-07-06T10:17:29;95966.00;;;24.12;50.97
51333;BME280;37417;48.118;11.734;2022-07-06T10:20:15;95962.09;;;22.96;51.33
51333;BME280;37417;48.118;11.734;2022-07-06T10:23:03;95962.63;;;24.92;47.86
51333;BME280;37417;48.118;11.734;2022-07-06T10:25:49;95963.34;;;27.07;47.04
51333;BME280;37417;48.118;11.734;2022-07-06T10:28:35;95970.66;;;26.96;40.55
51333;BME280;37417;48.118;11.734;2022-07-06T10:31:23;95956.69;;;25.99;45.58
51333;BME280;37417;48.118;11.734;2022-07-06T10:34:12;95969.66;;;27.35;42.67
51333;BME280;37417;48.118;11.734;2022-07-06T10:36:58;95960.34;;;27.51;42.97
51333;BME280;37417;48.118;11.734;2022-07-06T10:39:47;95955.09;;;27.22;40.61
51333;BME280;37417;48.118;11.734;2022-07-06T10:43:11;95958.28;;;27.81;41.29
51333;BME280;37417;48.118;11.734;2022-07-06T10:45:56;95949.63;;;29.32;37.67
51333;BME280;37417;48.118;11.734;2022-07-06T10:48:44;95955.53;;;27.86;39.51
51333;BME280;37417;48.118;11.734;2022-07-06T10:51:30;95946.88;;;27.19;38.27
51333;BME280;37417;48.118;11.734;2022-07-06T10:54:20;95951.81;;;25.66;39.24
51333;BME280;37417;48.118;11.734;2022-07-06T10:57:10;95951.28;;;26.33;40.10
51333;BME280;37417;48.118;11.734;2022-07-06T11:00:05;95952.53;;;24.78;42.28
51333;BME280;37417;48.118;11.734;2022-07-06T11:02:51;95949.75;;;25.14;41.82
51333;BME280;37417;48.118;11.734;2022-07-06T11:05:40;95946.22;;;26.02;43.37
51333;BME280;37417;48.118;11.734;2022-07-06T11:14:21;95958.88;;;30.83;35.27
51333;BME280;37417;48.118;11.734;2022-07-06T11:17:09;95957.13;;;26.64;40.19
51333;BME280;37417;48.118;11.734;2022-07-06T11:19:56;95952.91;;;24.51;45.44
51333;BME280;37417;48.118;11.734;2022-07-06T11:22:43;95952.88;;;26.63;41.97
51333;BME280;37417;48.118;11.734;2022-07-06T11:25:29;95950.38;;;29.46;37.92
51333;BME280;37417;48.118;11.734;2022-07-06T11:28:15;95948.81;;;28.21;38.03
51333;BME280;37417;48.118;11.734;2022-07-06T11:31:00;95952.66;;;27.45;38.08
51333;BME280;37417;48.118;11.734;2022-07-06T11:33:47;95937.72;;;28.42;36.67
51333;BME280;37417;48.118;11.734;2022-07-06T11:36:34;95942.63;;;28.21;36.99
51333;BME280;37417;48.118;11.734;2022-07-06T11:39:19;95939.94;;;24.94;41.23
51333;BME280;37417;48.118;11.734;2022-07-06T11:42:06;95933.97;;;26.54;38.19
51333;BME280;37417;48.118;11.734;2022-07-06T11:44:53;95932.75;;;24.90;42.63
51333;BME280;37417;48.118;11.734;2022-07-06T11:47:39;95931.16;;;24.83;43.49
51333;BME280;37417;48.118;11.734;2022-07-06T11:50:24;95933.13;;;25.27;44.06
51333;BME280;37417;48.118;11.734;2022-07-06T11:53:10;95917.59;;;25.74;39.24
51333;BME280;37417;48.118;11.734;2022-07-06T11:56:02;95932.88;;;27.60;40.74
51333;BME280;37417;48.118;11.734;2022-07-06T11:58:49;95920.94;;;27.71;37.62
51333;BME280;37417;48.118;11.734;2022-07-06T12:01:35;95924.44;;;31.54;36.87
51333;BME280;37417;48.118;11.734;2022-07-06T12:04:27;95925.22;;;27.72;35.53
51333;BME280;37417;48.118;11.734;2022-07-06T12:07:15;95913.59;;;25.71;41.53
51333;BME280;37417;48.118;11.734;2022-07-06T12:10:01;95908.97;;;25.82;38.71
51333;BME280;37417;48.118;11.734;2022-07-06T12:12:47;95909.97;;;24.32;43.43
51333;BME280;37417;48.118;11.734;2022-07-06T12:15:32;95899.75;;;28.35;39.11
51333;BME280;37417;48.118;11.734;2022-07-06T12:18:18;95901.84;;;30.41;34.40
51333;BME280;37417;48.118;11.734;2022-07-06T12:21:04;95894.22;;;30.74;32.96
51333;BME280;37417;48.118;11.734;2022-07-06T12:23:53;95906.69;;;32.81;29.35
51333;BME280;37417;48.118;11.734;2022-07-06T12:26:40;95904.28;;;29.75;32.68
51333;BME280;37417;48.118;11.734;2022-07-06T12:29:26;95903.03;;;28.31;33.02
51333;BME280;37417;48.118;11.734;2022-07-06T12:32:20;95903.97;;;27.75;35.61
51333;BME280;37417;48.118;11.734;2022-07-06T12:35:09;95893.69;;;26.88;37.20
51333;BME280;37417;48.118;11.734;2022-07-06T12:37:56;95888.34;;;29.42;35.45
51333;BME280;37417;48.118;11.734;2022-07-06T12:40:43;95890.16;;;30.54;31.55
51333;BME280;37417;48.118;11.734;2022-07-06T12:43:37;95887.03;;;28.54;35.25
51333;BME280;37417;48.118;11.734;2022-07-06T12:46:31;95883.88;;;24.24;41.38
51333;BME280;37417;48.118;11.734;2022-07-06T12:49:22;95884.84;;;27.12;39.89
51333;BME280;37417;48.118;11.734;2022-07-06T12:52:12;95874.88;;;26.93;36.15
51333;BME280;37417;48.118;11.734;2022-07-06T12:55:00;95885.75;;;27.91;37.07
51333;BME280;37417;48.118;11.734;2022-07-06T12:57:47;95882.31;;;26.96;36.06
51333;BME280;37417;48.118;11.734;2022-07-06T13:00:44;95891.56;;;25.11;39.22
51333;BME280;37417;48.118;11.734;2022-07-06T13:03:40;95870.66;;;25.91;37.78
51333;BME280;37417;48.118;11.734;2022-07-06T13:06:33;95880.41;;;26.78;38.04
51333;BME280;37417;48.118;11.734;2022-07-06T13:09:20;95881.13;;;25.15;38.50
51333;BME280;37417;48.118;11.734;2022-07-06T13:12:06;95878.22;;;25.11;39.09
51333;BME280;37417;48.118;11.734;2022-07-06T13:14:52;95876.44;;;26.76;34.52
51333;BME280;37417;48.118;11.734;2022-07-06T13:17:38;95873.88;;;27.46;34.58
51333;BME280;37417;48.118;11.734;2022-07-06T13:20:24;95884.25;;;30.35;32.77
51333;BME280;37417;48.118;11.734;2022-07-06T13:23:10;95884.41;;;30.87;31.43
51333;BME280;37417;48.118;11.734;2022-07-06T13:25:55;95874.81;;;29.25;36.11
51333;BME280;37417;48.118;11.734;2022-07-06T13:28:41;95876.38;;;30.47;31.93
51333;BME280;37417;48.118;11.734;2022-07-06T13:31:27;95867.47;;;27.93;35.12
51333;BME280;37417;48.118;11.734;2022-07-06T13:34:13;95866.47;;;25.12;38.80
51333;BME280;37417;48.118;11.734;2022-07-06T13:36:59;95863.09;;;25.35;39.82
51333;BME280;37417;48.118;11.734;2022-07-06T13:39:44;95862.34;;;26.22;37.42
51333;BME280;37417;48.118;11.734;2022-07-06T13:42:30;95858.78;;;26.27;37.85
51333;BME280;37417;48.118;11.734;2022-07-06T13:45:15;95857.59;;;26.38;36.41
51333;BME280;37417;48.118;11.734;2022-07-06T13:48:01;95855.06;;;26.04;37.09
51333;BME280;37417;48.118;11.734;2022-07-06T13:50:47;95854.19;;;26.32;35.96
51333;BME280;37417;48.118;11.734;2022-07-06T13:53:32;95858.50;;;26.76;35.70
51333;BME280;37417;48.118;11.734;2022-07-06T13:56:19;95859.91;;;27.11;35.74
51333;BME280;37417;48.118;11.734;2022-07-06T13:59:05;95864.53;;;28.09;34.23
51333;BME280;37417;48.118;11.734;2022-07-06T14:01:51;95863.53;;;28.04;35.37
51333;BME280;37417;48.118;11.734;2022-07-06T14:04:36;95859.44;;;28.07;33.51
51333;BME280;37417;48.118;11.734;2022-07-06T14:07:22;95845.75;;;28.22;32.96
51333;BME280;37417;48.118;11.734;2022-07-06T14:10:08;95849.56;;;27.75;32.03
51333;BME280;37417;48.118;11.734;2022-07-06T14:12:54;95838.69;;;24.69;38.31
51333;BME280;37417;48.118;11.734;2022-07-06T14:15:39;95839.91;;;24.87;38.92
51333;BME280;37417;48.118;11.734;2022-07-06T14:18:25;95847.19;;;25.54;39.63
51333;BME280;37417;48.118;11.734;2022-07-06T14:21:11;95844.84;;;26.96;35.77
51333;BME280;37417;48.118;11.734;2022-07-06T14:23:56;95839.81;;;26.52;36.54
51333;BME280;37417;48.118;11.734;2022-07-06T14:26:42;95841.69;;;29.52;32.48
51333;BME280;37417;48.118;11.734;2022-07-06T14:29:28;95837.47;;;31.92;30.15
51333;BME280;37417;48.118;11.734;2022-07-06T14:32:14;95831.97;;;32.56;29.44